createdAt,value
2018-07-06T00:00:36.506Z,19.99
2018-07-06T00:03:30.299Z,19.99
2018-07-06T00:06:24.190Z,20.03
2018-07-06T00:09:17.934Z,19.97
2018-07-06T00:12:11.701Z,19.93
2018-07-06T00:15:05.410Z,19.95
2018-07-06T00:17:59.158Z,20.02
2018-07-06T00:20:52.893Z,20.12
2018-07-06T00:23:46.529Z,20.16
2018-07-06T00:26:40.306Z,20.08
2018-07-06T00:29:34.300Z,19.98
2018-07-06T00:32:27.852Z,19.88
2018-07-06T00:35:21.575Z,19.69
2018-07-06T00:38:15.396Z,19.53
2018-07-06T00:41:09.027Z,19.43
2018-07-06T00:44:02.899Z,19.43
2018-07-06T00:46:56.635Z,19.44
2018-07-06T00:49:50.358Z,19.40
2018-07-06T00:52:44.090Z,19.34
2018-07-06T00:55:37.721Z,19.34
2018-07-06T00:58:31.462Z,19.39
2018-07-06T01:01:25.289Z,19.32
2018-07-06T01:04:19.031Z,19.19
2018-07-06T01:07:12.663Z,19.18
2018-07-06T01:10:06.577Z,19.11
2018-07-06T01:13:01.341Z,18.85
2018-07-06T01:15:54.929Z,18.82
2018-07-06T01:18:48.706Z,18.79
2018-07-06T01:21:42.448Z,18.78
2018-07-06T01:24:35.931Z,18.72
2018-07-06T01:27:29.569Z,18.67
2018-07-06T01:30:23.111Z,18.59
2018-07-06T01:33:16.928Z,18.38
2018-07-06T01:36:10.573Z,18.43
2018-07-06T01:39:04.218Z,18.29
2018-07-06T01:41:57.789Z,18.15
2018-07-06T01:44:51.555Z,18.13
2018-07-06T01:47:39.120Z,18.00
2018-07-06T01:50:32.807Z,18.06
2018-07-06T01:53:26.469Z,18.08
2018-07-06T01:56:20.278Z,18.03
2018-07-06T01:59:13.746Z,18.04
2018-07-06T02:02:07.436Z,18.08
2018-07-06T02:05:01.153Z,18.05
2018-07-06T02:07:54.982Z,18.04
2018-07-06T02:10:48.540Z,17.97
2018-07-06T02:13:42.142Z,18.08
2018-07-06T02:16:35.913Z,18.18
2018-07-06T02:19:29.793Z,18.27
2018-07-06T02:22:23.486Z,18.25
2018-07-06T02:25:17.113Z,18.16
2018-07-06T02:28:10.982Z,17.99
2018-07-06T02:31:05.067Z,17.84
2018-07-06T02:33:58.836Z,17.73
2018-07-06T02:36:52.558Z,17.64
2018-07-06T02:39:46.176Z,17.73
2018-07-06T02:42:39.882Z,17.90
2018-07-06T02:45:33.685Z,18.03
2018-07-06T02:48:27.462Z,18.02
2018-07-06T02:51:15.234Z,18.02
2018-07-06T02:54:08.649Z,17.99
2018-07-06T02:57:02.375Z,18.02
2018-07-06T02:59:55.906Z,18.08
2018-07-06T03:02:49.626Z,18.14
2018-07-06T03:05:43.242Z,18.19
2018-07-06T03:08:37.252Z,18.18
2018-07-06T03:11:30.831Z,18.22
2018-07-06T03:14:24.435Z,18.21
2018-07-06T03:17:18.166Z,18.23
2018-07-06T03:20:11.776Z,18.22
2018-07-06T03:23:05.614Z,18.12
2018-07-06T03:25:59.302Z,18.00
2018-07-06T03:28:52.826Z,17.87
2018-07-06T03:31:46.557Z,17.71
2018-07-06T03:34:40.291Z,17.65
2018-07-06T03:37:34.098Z,17.70
2018-07-06T03:40:27.629Z,17.67
2018-07-06T03:43:21.951Z,17.78
2018-07-06T03:46:15.811Z,17.75
2018-07-06T03:49:09.350Z,17.63
2018-07-06T03:52:03.189Z,17.49
2018-07-06T03:54:57.104Z,17.46
2018-07-06T03:57:50.789Z,17.53
2018-07-06T04:00:44.666Z,17.65
2018-07-06T04:03:38.298Z,17.71
2018-07-06T04:06:32.024Z,17.65
2018-07-06T04:09:25.757Z,17.59
2018-07-06T04:12:19.755Z,17.59
2018-07-06T04:15:13.474Z,17.54
2018-07-06T04:18:07.380Z,17.43
2018-07-06T04:21:01.113Z,17.41
2018-07-06T04:23:54.724Z,17.43
2018-07-06T04:26:48.489Z,17.48
2018-07-06T04:29:42.042Z,17.58
2018-07-06T04:32:29.989Z,17.67
2018-07-06T04:35:23.606Z,17.62
2018-07-06T04:38:17.408Z,17.50
2018-07-06T04:41:05.066Z,17.45
2018-07-06T04:43:58.638Z,17.49
2018-07-06T04:46:52.331Z,17.56
2018-07-06T04:49:46.036Z,17.56
2018-07-06T04:52:39.847Z,17.55
2018-07-06T04:55:33.606Z,17.55
2018-07-06T04:58:27.250Z,17.45
2018-07-06T05:01:20.797Z,17.40
2018-07-06T05:04:14.740Z,17.42
2018-07-06T05:07:08.574Z,17.34
2018-07-06T05:10:02.422Z,17.36
2018-07-06T05:12:56.057Z,17.19
2018-07-06T05:15:49.849Z,17.27
2018-07-06T05:18:43.447Z,17.31
2018-07-06T05:21:31.341Z,17.19
2018-07-06T05:24:24.974Z,17.19
2018-07-06T05:27:18.709Z,17.33
2018-07-06T05:30:12.382Z,17.33
2018-07-06T05:33:05.911Z,17.29
2018-07-06T05:35:59.317Z,17.11
2018-07-06T05:38:53.383Z,17.16
2018-07-06T05:41:46.953Z,17.21
2018-07-06T05:44:40.572Z,17.19
2018-07-06T05:47:34.187Z,17.13
2018-07-06T05:50:27.856Z,17.00
2018-07-06T05:53:21.482Z,17.03
2018-07-06T05:56:15.298Z,17.03
2018-07-06T05:59:09.049Z,16.94
2018-07-06T06:02:02.937Z,16.91
2018-07-06T06:04:56.450Z,17.05
2018-07-06T06:07:31.404Z,17.26
2018-07-06T06:10:01.825Z,17.32
2018-07-06T06:12:32.635Z,17.33
2018-07-06T06:15:03.676Z,17.39
2018-07-06T06:17:34.443Z,17.42
2018-07-06T06:20:05.207Z,17.51
2018-07-06T06:22:36.274Z,17.58
2018-07-06T06:25:07.008Z,17.66
2018-07-06T06:27:38.069Z,17.74
2018-07-06T06:30:09.129Z,17.81
2018-07-06T06:32:40.550Z,17.70
2018-07-06T06:35:11.605Z,17.60
2018-07-06T06:37:43.750Z,17.65
2018-07-06T06:40:14.573Z,17.72
2018-07-06T06:42:45.408Z,17.82
2018-07-06T06:45:16.537Z,17.86
2018-07-06T06:47:47.598Z,17.94
2018-07-06T06:50:18.663Z,17.98
2018-07-06T06:52:49.888Z,18.05
2018-07-06T06:55:21.034Z,18.08
2018-07-06T06:57:52.055Z,18.00
2018-07-06T07:00:27.533Z,17.95
2018-07-06T07:02:54.097Z,17.89
2018-07-06T07:05:25.212Z,17.90
2018-07-06T07:07:56.375Z,17.96
2018-07-06T07:10:27.471Z,18.03
2018-07-06T07:12:58.580Z,18.10
2018-07-06T07:15:29.998Z,18.17
2018-07-06T07:18:01.064Z,18.19
2018-07-06T07:20:32.183Z,18.26
2018-07-06T07:23:03.351Z,18.34
2018-07-06T07:25:34.427Z,18.34
2018-07-06T07:28:05.711Z,18.30
2018-07-06T07:30:36.798Z,18.39
2018-07-06T07:33:07.906Z,18.48
2018-07-06T07:35:38.757Z,18.54
2018-07-06T07:38:09.410Z,18.40
2018-07-06T07:40:40.396Z,18.26
2018-07-06T07:43:11.971Z,18.39
2018-07-06T07:45:43.385Z,18.41
2018-07-06T07:48:14.776Z,18.34
2018-07-06T07:51:06.090Z,18.42
2018-07-06T07:53:53.722Z,18.41
2018-07-06T07:56:24.688Z,18.40
2018-07-06T07:58:55.727Z,18.39
2018-07-06T08:01:27.027Z,18.30
2018-07-06T08:03:57.972Z,18.41
2018-07-06T08:06:29.320Z,18.39
2018-07-06T08:09:00.875Z,18.57
2018-07-06T08:11:35.446Z,18.63
2018-07-06T08:14:05.044Z,18.66
2018-07-06T08:16:35.482Z,18.65
2018-07-06T08:19:07.633Z,18.68
2018-07-06T08:21:38.731Z,18.66
2018-07-06T08:24:09.705Z,18.70
2018-07-06T08:26:40.335Z,18.78
2018-07-06T08:29:11.560Z,18.89
2018-07-06T08:31:43.024Z,18.98
2018-07-06T08:34:30.971Z,19.04
2018-07-06T08:37:49.012Z,19.19
2018-07-06T08:40:21.258Z,19.09
2018-07-06T08:43:01.039Z,19.25
2018-07-06T08:45:33.480Z,19.33
2018-07-06T08:48:04.513Z,19.34
2018-07-06T08:50:35.566Z,19.42
2018-07-06T08:53:07.138Z,19.56
2018-07-06T08:55:38.196Z,19.65
2018-07-06T08:58:09.277Z,19.58
2018-07-06T09:00:40.412Z,19.61
2018-07-06T09:03:11.280Z,19.86
2018-07-06T09:05:42.357Z,19.88
2018-07-06T09:08:13.843Z,20.01
2018-07-06T09:10:44.805Z,20.11
2018-07-06T09:13:15.976Z,20.31
2018-07-06T09:15:46.878Z,20.64
2018-07-06T09:18:17.897Z,20.96
2018-07-06T09:20:48.922Z,20.92
2018-07-06T09:23:19.953Z,20.97
2018-07-06T09:25:51.165Z,21.07
2018-07-06T09:28:22.279Z,21.28
2018-07-06T09:30:53.544Z,21.34
2018-07-06T09:33:24.935Z,20.91
2018-07-06T09:35:56.102Z,20.93
2018-07-06T09:38:27.358Z,21.20
2018-07-06T09:40:58.371Z,21.40
2018-07-06T09:43:29.422Z,21.63
2018-07-06T09:46:00.594Z,21.78
2018-07-06T09:48:31.341Z,22.13
2018-07-06T09:51:02.334Z,22.26
2018-07-06T09:53:33.536Z,22.45
2018-07-06T09:56:04.904Z,22.42
2018-07-06T09:58:35.689Z,22.37
2018-07-06T10:01:06.790Z,22.24
2018-07-06T10:03:37.830Z,22.07
2018-07-06T10:06:08.954Z,22.27
2018-07-06T10:08:40.336Z,22.60
2018-07-06T10:11:11.909Z,22.80
2018-07-06T10:13:43.143Z,23.00
2018-07-06T10:16:14.596Z,23.14
2018-07-06T10:18:45.836Z,23.26
2018-07-06T10:21:17.455Z,23.28
2018-07-06T10:23:48.647Z,23.51
2018-07-06T10:26:20.089Z,23.64
2018-07-06T10:30:05.762Z,23.43
2018-07-06T10:32:36.682Z,23.86
2018-07-06T10:35:08.151Z,23.88
2018-07-06T10:37:39.308Z,23.79
2018-07-06T10:40:10.759Z,23.55
2018-07-06T10:42:41.608Z,23.64
2018-07-06T10:45:12.651Z,23.71
2018-07-06T10:47:43.858Z,23.77
2018-07-06T10:50:14.847Z,23.86
2018-07-06T10:52:45.845Z,23.80
2018-07-06T10:55:16.901Z,24.05
2018-07-06T10:57:48.049Z,24.32
2018-07-06T11:00:19.373Z,24.20
2018-07-06T11:02:50.363Z,24.28
2018-07-06T11:05:21.344Z,24.23
2018-07-06T11:07:52.476Z,24.48
2018-07-06T11:10:23.859Z,24.45
2018-07-06T11:12:54.549Z,24.28
2018-07-06T11:15:25.998Z,24.38
2018-07-06T11:17:57.018Z,24.26
2018-07-06T11:20:28.125Z,24.24
2018-07-06T11:22:59.112Z,24.13
2018-07-06T11:25:29.962Z,24.06
2018-07-06T11:28:00.835Z,24.18
2018-07-06T11:30:32.264Z,24.25
2018-07-06T11:33:03.271Z,24.45
2018-07-06T11:35:35.034Z,24.61
2018-07-06T11:38:06.187Z,24.67
2018-07-06T11:40:37.309Z,24.70
2018-07-06T11:43:08.017Z,24.74
2018-07-06T11:45:39.286Z,24.90
2018-07-06T11:48:10.550Z,24.82
2018-07-06T11:50:41.966Z,24.78
2018-07-06T11:53:13.077Z,24.78
2018-07-06T11:55:44.148Z,24.63
2018-07-06T11:58:15.238Z,24.91
2018-07-06T12:00:46.470Z,25.27
2018-07-06T12:03:17.833Z,25.25
2018-07-06T12:05:48.852Z,25.14
2018-07-06T12:08:19.833Z,25.31
2018-07-06T12:10:51.169Z,25.29
2018-07-06T12:13:22.506Z,25.25
2018-07-06T12:15:54.288Z,25.31
2018-07-06T12:18:25.438Z,25.15
2018-07-06T12:20:56.821Z,25.06
2018-07-06T12:23:28.114Z,25.09
2018-07-06T12:25:59.102Z,24.95
2018-07-06T12:28:30.138Z,24.98
2018-07-06T12:31:01.469Z,25.00
2018-07-06T12:33:32.566Z,25.02
2018-07-06T12:36:04.138Z,25.16
2018-07-06T12:38:34.886Z,25.07
2018-07-06T12:41:07.777Z,24.99
2018-07-06T12:43:38.843Z,25.07
2018-07-06T12:46:10.258Z,24.86
2018-07-06T12:48:41.294Z,24.85
2018-07-06T12:51:12.707Z,24.96
2018-07-06T12:53:43.841Z,25.07
2018-07-06T12:56:15.087Z,24.88
2018-07-06T12:58:46.334Z,24.91
2018-07-06T13:01:17.410Z,25.15
2018-07-06T13:03:49.154Z,25.24
2018-07-06T13:06:20.157Z,25.38
2018-07-06T13:08:51.499Z,25.40
2018-07-06T13:11:22.524Z,25.30
2018-07-06T13:13:53.292Z,25.41
2018-07-06T13:16:24.157Z,25.38
2018-07-06T13:18:55.311Z,25.48
2018-07-06T13:21:26.320Z,25.59
2018-07-06T13:23:57.389Z,25.72
2018-07-06T13:26:28.837Z,25.74
2018-07-06T13:28:59.890Z,25.62
2018-07-06T13:31:30.893Z,25.51
2018-07-06T13:34:02.117Z,25.55
2018-07-06T13:36:33.079Z,25.64
2018-07-06T13:39:04.800Z,25.70
2018-07-06T13:41:36.021Z,25.84
2018-07-06T13:44:07.212Z,25.69
2018-07-06T13:46:38.280Z,25.49
2018-07-06T13:49:09.796Z,25.37
2018-07-06T13:51:40.860Z,25.41
2018-07-06T13:54:11.967Z,25.44
2018-07-06T13:56:43.267Z,25.38
2018-07-06T13:59:14.387Z,25.42
2018-07-06T14:01:45.494Z,25.43
2018-07-06T14:04:16.280Z,25.54
2018-07-06T14:06:47.301Z,25.62
2018-07-06T14:09:18.313Z,25.85
2018-07-06T14:11:49.333Z,25.95
2018-07-06T14:14:20.584Z,25.80
2018-07-06T14:16:51.580Z,25.77
2018-07-06T14:19:23.154Z,25.74
2018-07-06T14:21:54.449Z,25.76
2018-07-06T14:24:25.444Z,25.66
2018-07-06T14:26:56.582Z,25.62
2018-07-06T14:29:27.622Z,25.62
2018-07-06T14:31:58.607Z,25.53
2018-07-06T14:34:29.857Z,25.53
2018-07-06T14:37:01.206Z,25.60
2018-07-06T14:39:32.200Z,25.56
2018-07-06T14:42:03.199Z,25.48
2018-07-06T14:44:34.522Z,25.55
2018-07-06T14:47:05.595Z,25.71
2018-07-06T14:49:37.254Z,25.70
2018-07-06T14:52:08.318Z,25.77
2018-07-06T14:54:39.362Z,25.71
2018-07-06T14:57:10.412Z,25.70
2018-07-06T14:59:41.585Z,25.67
2018-07-06T15:02:13.075Z,25.74
2018-07-06T15:04:44.449Z,25.82
2018-07-06T15:07:15.336Z,25.79
2018-07-06T15:09:46.313Z,25.80
2018-07-06T15:12:17.661Z,25.74
2018-07-06T15:14:49.454Z,25.91
2018-07-06T15:17:20.470Z,25.96
2018-07-06T15:19:51.462Z,26.02
2018-07-06T15:22:22.537Z,26.06
2018-07-06T15:24:53.624Z,26.07
2018-07-06T15:27:24.829Z,26.01
2018-07-06T15:29:56.083Z,25.91
2018-07-06T15:32:27.071Z,26.09
2018-07-06T15:34:58.776Z,26.06
2018-07-06T15:37:29.811Z,26.05
2018-07-06T15:40:00.963Z,25.88
2018-07-06T15:42:32.532Z,25.93
2018-07-06T15:45:03.873Z,26.12
2018-07-06T15:47:35.126Z,26.20
2018-07-06T15:50:06.211Z,26.36
2018-07-06T15:52:37.362Z,26.25
2018-07-06T15:55:08.447Z,26.26
2018-07-06T15:57:39.515Z,26.18
2018-07-06T16:00:10.519Z,26.17
2018-07-06T16:02:41.619Z,26.17
2018-07-06T16:05:12.712Z,26.11
2018-07-06T16:07:43.814Z,26.15
2018-07-06T16:10:14.911Z,26.07
2018-07-06T16:12:46.124Z,26.05
2018-07-06T16:15:17.128Z,26.13
2018-07-06T16:17:48.598Z,26.22
2018-07-06T16:20:19.992Z,26.10
2018-07-06T16:22:51.359Z,26.08
2018-07-06T16:25:22.319Z,26.05
2018-07-06T16:27:53.809Z,26.18
2018-07-06T16:30:25.422Z,26.14
2018-07-06T16:32:56.497Z,26.03
2018-07-06T16:35:27.654Z,25.97
2018-07-06T16:37:58.758Z,25.95
2018-07-06T16:40:30.655Z,25.64
2018-07-06T16:43:02.241Z,25.63
2018-07-06T16:45:33.402Z,25.65
2018-07-06T16:48:04.523Z,25.69
2018-07-06T16:50:35.626Z,25.73
2018-07-06T16:53:06.997Z,25.76
2018-07-06T16:55:38.585Z,25.69
2018-07-06T16:58:09.932Z,25.66
2018-07-06T17:00:41.276Z,25.63
2018-07-06T17:03:12.461Z,25.52
2018-07-06T17:05:43.497Z,25.63
2018-07-06T17:08:14.688Z,25.53
2018-07-06T17:10:45.747Z,25.43
2018-07-06T17:13:17.118Z,25.50
2018-07-06T17:15:48.417Z,25.48
2018-07-06T17:18:19.552Z,25.46
2018-07-06T17:20:50.642Z,25.51
2018-07-06T17:23:22.113Z,25.51
2018-07-06T17:25:53.126Z,25.33
2018-07-06T17:28:24.224Z,25.40
2018-07-06T17:30:55.364Z,25.40
2018-07-06T17:33:28.665Z,25.41
2018-07-06T17:36:00.009Z,25.44
2018-07-06T17:38:31.336Z,25.37
2018-07-06T17:41:02.574Z,25.32
2018-07-06T17:43:33.554Z,25.35
2018-07-06T17:46:05.422Z,25.34
2018-07-06T17:48:36.556Z,25.23
2018-07-06T17:51:07.914Z,25.25
2018-07-06T17:53:39.137Z,25.21
2018-07-06T17:56:10.301Z,25.23
2018-07-06T17:58:41.603Z,25.32
2018-07-06T18:01:12.780Z,25.33
2018-07-06T18:03:43.588Z,25.26
2018-07-06T18:06:14.698Z,25.23
2018-07-06T18:08:46.257Z,25.29
2018-07-06T18:11:17.463Z,25.21
2018-07-06T18:13:48.525Z,25.18
2018-07-06T18:16:20.306Z,25.11
2018-07-06T18:18:52.067Z,25.02
2018-07-06T18:21:23.178Z,24.96
2018-07-06T18:23:54.114Z,24.97
2018-07-06T18:26:25.170Z,24.87
2018-07-06T18:28:56.245Z,24.84
2018-07-06T18:31:27.966Z,24.87
2018-07-06T18:33:59.074Z,24.82
2018-07-06T18:36:30.207Z,24.83
2018-07-06T18:39:01.084Z,24.71
2018-07-06T18:41:32.662Z,24.71
2018-07-06T18:44:03.733Z,24.73
2018-07-06T18:46:34.842Z,24.66
2018-07-06T18:49:06.621Z,24.72
2018-07-06T18:51:37.822Z,24.65
2018-07-06T18:54:08.952Z,24.67
2018-07-06T18:56:40.409Z,24.69
2018-07-06T18:59:11.522Z,24.72
2018-07-06T19:01:42.804Z,24.57
2018-07-06T19:04:13.866Z,24.39
2018-07-06T19:06:45.155Z,24.47
2018-07-06T19:09:16.962Z,24.48
2018-07-06T19:11:48.160Z,24.48
2018-07-06T19:14:19.251Z,24.38
2018-07-06T19:16:50.467Z,24.38
2018-07-06T19:19:21.832Z,24.33
2018-07-06T19:21:53.006Z,24.32
2018-07-06T19:24:24.075Z,24.34
2018-07-06T19:26:55.160Z,24.27
2018-07-06T19:29:25.966Z,24.32
2018-07-06T19:31:57.363Z,24.30
2018-07-06T19:34:28.835Z,24.26
2018-07-06T19:37:04.660Z,24.27
2018-07-06T19:39:36.339Z,24.18
2018-07-06T19:42:10.863Z,24.13
2018-07-06T19:44:42.270Z,24.11
2018-07-06T19:47:18.735Z,24.10
2018-07-06T19:49:50.574Z,24.08
2018-07-06T19:52:24.327Z,24.03
2018-07-06T19:54:55.695Z,24.02
2018-07-06T19:57:26.946Z,24.03
2018-07-06T19:59:58.594Z,24.04
2018-07-06T20:02:30.009Z,24.03
2018-07-06T20:05:02.082Z,24.03
2018-07-06T20:07:33.645Z,24.03
2018-07-06T20:10:05.443Z,24.02
2018-07-06T20:12:36.671Z,24.06
2018-07-06T20:15:10.562Z,24.05
2018-07-06T20:17:43.807Z,24.00
2018-07-06T20:20:20.928Z,23.97
2018-07-06T20:22:56.031Z,23.85
2018-07-06T20:25:32.257Z,23.82
2018-07-06T20:28:07.407Z,23.76
2018-07-06T20:30:41.352Z,23.71
2018-07-06T20:33:15.548Z,23.59
2018-07-06T20:35:48.644Z,23.51
2018-07-06T20:38:21.448Z,23.42
2018-07-06T20:40:56.609Z,23.41
2018-07-06T20:43:32.012Z,23.38
2018-07-06T20:46:08.466Z,23.36
2018-07-06T20:48:44.125Z,23.39
2018-07-06T20:51:19.636Z,23.35
2018-07-06T20:53:55.556Z,23.34
2018-07-06T20:56:30.165Z,23.24
2018-07-06T20:59:04.636Z,23.21
2018-07-06T21:01:39.005Z,23.13
2018-07-06T21:04:12.102Z,23.05
2018-07-06T21:06:46.771Z,22.98
2018-07-06T21:09:22.521Z,22.90
2018-07-06T21:11:56.968Z,22.84
2018-07-06T21:14:28.085Z,22.83
2018-07-06T21:17:03.022Z,22.84
2018-07-06T21:19:38.710Z,22.87
2018-07-06T21:22:15.988Z,22.87
2018-07-06T21:24:52.438Z,22.79
2018-07-06T21:27:27.590Z,22.73
2018-07-06T21:30:02.799Z,22.46
2018-07-06T21:32:37.597Z,22.57
2018-07-06T21:35:12.521Z,22.51
2018-07-06T21:37:48.832Z,22.47
2018-07-06T21:40:24.669Z,22.45
2018-07-06T21:42:56.237Z,22.39
2018-07-06T21:45:31.448Z,22.33
2018-07-06T21:48:07.787Z,22.29
2018-07-06T21:50:43.786Z,22.26
2018-07-06T21:53:19.277Z,22.16
2018-07-06T21:55:50.556Z,22.12
2018-07-06T21:58:25.515Z,22.08
2018-07-06T22:01:01.438Z,22.07
2018-07-06T22:03:34.838Z,22.04
2018-07-06T22:06:05.854Z,21.93
2018-07-06T22:08:37.324Z,21.88
2018-07-06T22:11:08.429Z,21.78
2018-07-06T22:13:40.116Z,21.69
2018-07-06T22:16:11.586Z,21.63
2018-07-06T22:18:43.090Z,21.53
2018-07-06T22:21:14.473Z,21.43
2018-07-06T22:23:46.405Z,21.38
2018-07-06T22:26:17.518Z,21.33
2018-07-06T22:28:49.135Z,21.25
2018-07-06T22:31:20.164Z,21.20
2018-07-06T22:33:51.154Z,21.19
2018-07-06T22:36:22.262Z,21.15
2018-07-06T22:38:53.035Z,21.10
2018-07-06T22:41:24.255Z,21.08
2018-07-06T22:43:55.515Z,21.09
2018-07-06T22:46:26.568Z,21.08
2018-07-06T22:48:57.607Z,21.10
2018-07-06T22:51:28.630Z,21.11
2018-07-06T22:54:00.417Z,21.04
2018-07-06T22:56:33.383Z,21.05
2018-07-06T22:59:04.718Z,21.00
2018-07-06T23:01:35.758Z,20.95
2018-07-06T23:04:06.896Z,20.81
2018-07-06T23:06:38.811Z,20.75
2018-07-06T23:09:10.177Z,20.74
2018-07-06T23:11:41.028Z,20.74
2018-07-06T23:14:11.920Z,20.78
2018-07-06T23:16:43.338Z,20.78
2018-07-06T23:19:14.347Z,20.79
2018-07-06T23:21:45.337Z,20.76
2018-07-06T23:24:16.712Z,20.72
2018-07-06T23:26:47.749Z,20.62
2018-07-06T23:29:18.822Z,20.57
2018-07-06T23:31:49.856Z,20.47
2018-07-06T23:34:20.930Z,20.44
2018-07-06T23:36:52.296Z,20.40
2018-07-06T23:39:23.290Z,20.39
2018-07-06T23:41:54.852Z,20.46
2018-07-06T23:44:25.702Z,20.49
2018-07-06T23:46:57.090Z,20.50
2018-07-06T23:49:28.106Z,20.51
2018-07-06T23:51:59.484Z,20.46
2018-07-06T23:54:30.509Z,20.43
2018-07-06T23:57:01.477Z,20.34
2018-07-06T23:59:32.470Z,20.31
